To NAV CANADA Home Page Login to a new session Search on AWWS site Disclaimer Vers la page française équivalente Tips FAQ What's new on the site To the Forecasts and Observations / NOTAM section To "File a Flight Plan" website Publications and other links Update of the User's profile FIC Telephone Numbers My Weather Data Folder Route Weather Data Regional Weather Data Local Weather Data To the Forecasts and Observations / NOTAM section
Request Generated 04/23/2018 at 17:11:14 UTC . Weather information available at that time is displayed.


Save this request

METAR/TAF

WINNIPEG/JAMES ARMSTRONG RICHARDSON INTL/MB    

METAR CYWG 231700Z 33015KT 290V350 15SM FEW045 SCT250 12/00 A3018 RMK
SC1CI4 SC TR SLP229=
METAR CYWG 231600Z 29011G17KT 15SM FEW040 BKN250 11/00 A3019 RMK
SC1CI6 SC TR SLP232=
METAR CYWG 231500Z 31012G18KT 15SM BKN250 10/02 A3018 RMK CI7 SLP228=

TAF CYWG 231138Z 2312/2412 29008KT P6SM FEW100 FEW250
BECMG 2313/2315 31015KT
FM240100 34012KT P6SM BKN050
BECMG 2404/2406 03008KT
RMK NXT FCST BY 231800Z=

PORTAGE LA PRAIRIE/SOUTHPORT/MB    

METAR CYPG 231700Z 29015G20KT 15SM FEW050 SCT250 13/00 A3020 RMK CF1CI3 CUFRA TR SLP234=
METAR CYPG 231600Z 30013G19KT 15SM SCT250 11/00 A3020 RMK CI3 SLP234=
METAR CYPG 231500Z 30013KT 15SM SCT250 10/00 A3020 RMK CI4 SLP234=

TAF CYPG 231220Z 2312/2324 27010G20KT P6SM FEW080 SCT250
FM231900 31010G20KT P6SM SCT050 BKN170
RMK NXT FCST BY 231800Z=

BRANDON MUNICIPALITY/MB    

METAR CYBR 231700Z 30010G16KT 15SM FEW028 BKN250 11/02 A3023 RMK
CU1CI5 SLP255=
METAR CYBR 231600Z 31010KT 15SM SCT250 09/02 A3022 RMK CI3 SLP252=
METAR CYBR 231500Z 29012KT 15SM SCT250 07/02 A3022 RMK CI4 SLP250=

TAF CYBR 231138Z 2312/2324 25010KT P6SM FEW100 SCT250
BECMG 2313/2315 31015KT
FM231900 32020G30KT P6SM FEW030 BKN180
RMK NXT FCST BY 231800Z=

KENORA/ON    

METAR CYQK 231700Z 30013G18KT 15SM FEW025 BKN250 11/M01 A3013 RMK
SC1CI5 SLP214=
METAR CYQK 231600Z 32009KT 250V340 20SM FEW025 SCT250 10/00 A3011 RMK
SC1CI3 SLP208=
METAR CYQK 231500Z 29012G18KT 270V330 20SM FEW030 SCT250 10/01 A3011
RMK SC1CI3 SLP207=

TAF CYQK 231338Z 2314/2402 25008KT P6SM SCT240
BECMG 2314/2316 28010G20KT
BECMG 2322/2324 31010KT
RMK NXT FCST BY 232000Z=

DRYDEN REGIONAL/ON    (show WxCam)

METAR CYHD 231700Z AUTO 25020G26KT 9SM CLR 13/00 A3007 RMK SLP196=
METAR CYHD 231600Z AUTO 26017G24KT 9SM CLR 13/01 A3006 RMK SLP193=
METAR CYHD 231500Z AUTO 27015KT 9SM CLR 11/02 A3007 RMK SLP194=

TAF CYHD 231338Z 2314/2402 25010G20KT P6SM FEW030
BECMG 2322/2324 27008KT
RMK FCST BASED ON AUTO OBS. NXT FCST BY 232000Z=

THUNDER BAY/ON    (show WxCam)

METAR CYQT 231700Z 08005KT 040V110 20SM SCT070 BKN090 OVC260 14/01
A3013 RMK AC3AC4CI1 SLP211=
METAR CYQT 231600Z 07005KT 20SM OVC075 11/M01 A3014 RMK AC8 SLP215=
METAR CYQT 231500Z 08005KT 20SM BKN070 BKN082 OVC260 11/M02 A3015 RMK
AC5AC2CI1 SLP220=

TAF CYQT 231338Z 2314/2402 VRB03KT P6SM SCT080 BKN120 TEMPO 2314/2316
BKN080 OVC120
BECMG 2314/2316 25008KT
FM231600 25010G20KT P6SM FEW240
BECMG 2322/2324 26008KT
RMK NXT FCST BY 232000Z=


Your time UTC time
Weather data provided by Environment Canada and NAV CANADA